createdAt,value
2022-11-29T00:01:07.554Z,24.70
2022-11-29T00:03:34.835Z,27.07
2022-11-29T00:06:10.092Z,25.17
2022-11-29T00:08:37.300Z,26.93
2022-11-29T00:11:09.488Z,27.80
2022-11-29T00:13:36.166Z,27.27
2022-11-29T00:16:04.609Z,26.47
2022-11-29T00:18:31.383Z,22.90
2022-11-29T00:20:58.116Z,24.97
2022-11-29T00:23:24.750Z,23.17
2022-11-29T00:25:51.506Z,26.97
2022-11-29T00:28:18.244Z,27.70
2022-11-29T00:30:45.143Z,23.63
2022-11-29T00:33:11.749Z,25.67
2022-11-29T00:35:38.410Z,25.67
2022-11-29T00:38:05.026Z,23.47
2022-11-29T00:40:31.601Z,25.97
2022-11-29T00:42:58.237Z,25.03
2022-11-29T00:45:24.817Z,22.50
2022-11-29T00:47:51.415Z,21.47
2022-11-29T00:50:18.565Z,26.00
2022-11-29T00:52:45.185Z,21.87
2022-11-29T00:55:11.800Z,23.63
2022-11-29T00:57:38.406Z,24.03
2022-11-29T01:00:05.888Z,23.13
2022-11-29T01:02:32.539Z,22.60
2022-11-29T01:04:59.211Z,24.80
2022-11-29T01:07:25.899Z,22.93
2022-11-29T01:09:52.570Z,25.17
2022-11-29T01:12:19.191Z,23.97
2022-11-29T01:14:46.059Z,20.73
2022-11-29T01:17:12.950Z,24.33
2022-11-29T01:19:39.584Z,24.37
2022-11-29T01:22:06.256Z,27.30
2022-11-29T01:24:32.882Z,24.03
2022-11-29T01:26:59.508Z,26.60
2022-11-29T01:29:26.138Z,24.80
2022-11-29T01:31:52.781Z,25.30
2022-11-29T01:34:19.418Z,25.97
2022-11-29T01:36:45.991Z,25.67
2022-11-29T01:39:12.613Z,24.73
2022-11-29T01:41:39.265Z,25.10
2022-11-29T01:44:28.439Z,23.57
2022-11-29T01:46:56.408Z,23.20
2022-11-29T01:49:28.889Z,28.17
2022-11-29T01:52:07.806Z,23.60
2022-11-29T01:54:39.665Z,22.17
2022-11-29T01:57:08.176Z,26.80
2022-11-29T01:59:38.819Z,21.73
2022-11-29T02:02:12.081Z,25.57
2022-11-29T02:04:41.601Z,22.30
2022-11-29T02:07:09.101Z,23.97
2022-11-29T02:09:35.677Z,20.70
2022-11-29T02:12:28.093Z,25.33
2022-11-29T02:15:22.687Z,25.67
2022-11-29T02:18:11.289Z,24.83
2022-11-29T02:21:13.334Z,25.70
2022-11-29T02:23:54.760Z,25.83
2022-11-29T02:27:08.745Z,22.57
2022-11-29T02:29:51.858Z,23.80
2022-11-29T02:32:46.570Z,25.83
2022-11-29T02:35:51.218Z,23.40
2022-11-29T02:38:45.319Z,24.73
2022-11-29T02:41:20.925Z,23.47
2022-11-29T02:44:17.330Z,23.97
2022-11-29T02:47:11.495Z,19.90
2022-11-29T02:49:49.908Z,25.27
2022-11-29T02:52:25.329Z,23.10
2022-11-29T02:55:06.900Z,24.23
2022-11-29T02:58:11.864Z,23.77
2022-11-29T03:00:46.580Z,23.03
2022-11-29T03:03:38.455Z,22.00
2022-11-29T03:06:18.612Z,23.50
2022-11-29T03:09:06.954Z,23.00
2022-11-29T03:11:49.611Z,22.27
2022-11-29T03:14:26.684Z,24.87
2022-11-29T03:17:21.605Z,24.73
2022-11-29T03:19:56.872Z,20.83
2022-11-29T03:22:50.692Z,23.23
2022-11-29T03:25:33.226Z,22.70
2022-11-29T03:28:07.048Z,22.27
2022-11-29T03:30:39.319Z,25.80
2022-11-29T03:33:24.705Z,22.47
2022-11-29T03:36:21.418Z,22.13
2022-11-29T03:38:48.280Z,22.97
2022-11-29T03:41:49.410Z,18.67
2022-11-29T03:44:25.851Z,22.10
2022-11-29T03:47:23.604Z,25.63
2022-11-29T03:49:59.557Z,21.77
2022-11-29T03:52:49.471Z,21.90
2022-11-29T03:55:22.203Z,22.57
2022-11-29T03:58:07.346Z,22.97
2022-11-29T04:00:49.544Z,23.67
2022-11-29T04:03:31.265Z,21.87
2022-11-29T04:06:21.675Z,22.80
2022-11-29T04:09:10.092Z,21.30
2022-11-29T04:11:59.736Z,22.87
2022-11-29T04:14:34.928Z,20.90
2022-11-29T04:17:31.861Z,21.43
2022-11-29T04:20:01.189Z,25.70
2022-11-29T04:23:09.249Z,19.40
2022-11-29T04:26:06.066Z,22.67
2022-11-29T04:29:03.012Z,20.90
2022-11-29T04:31:32.795Z,20.87
2022-11-29T04:34:25.089Z,22.43
2022-11-29T04:37:03.710Z,24.10
2022-11-29T04:39:50.568Z,23.50
2022-11-29T04:42:54.824Z,21.97
2022-11-29T04:45:54.413Z,23.57
2022-11-29T04:48:42.704Z,21.03
2022-11-29T04:51:30.172Z,24.30
2022-11-29T04:54:33.059Z,25.37
2022-11-29T04:57:23.114Z,20.33
2022-11-29T05:00:09.722Z,22.90
2022-11-29T05:02:48.240Z,20.73
2022-11-29T05:05:26.794Z,23.47
2022-11-29T05:08:19.618Z,23.27
2022-11-29T05:11:11.208Z,20.80
2022-11-29T05:14:00.378Z,21.43
2022-11-29T05:16:47.765Z,20.43
2022-11-29T05:19:35.590Z,22.27
2022-11-29T05:22:26.466Z,22.73
2022-11-29T05:24:58.934Z,25.83
2022-11-29T05:28:04.487Z,24.53
2022-11-29T05:30:50.167Z,22.03
2022-11-29T05:33:44.464Z,24.27
2022-11-29T05:36:34.185Z,25.13
2022-11-29T05:39:24.636Z,22.10
2022-11-29T05:42:16.450Z,23.50
2022-11-29T05:45:08.825Z,22.83
2022-11-29T05:48:04.486Z,25.63
2022-11-29T05:50:42.381Z,23.50
2022-11-29T05:53:28.247Z,26.60
2022-11-29T05:56:25.413Z,28.53
2022-11-29T05:59:01.423Z,27.53
2022-11-29T06:01:34.917Z,24.70
2022-11-29T06:04:15.085Z,25.40
2022-11-29T06:06:50.418Z,23.13
2022-11-29T06:09:27.648Z,23.20
2022-11-29T06:12:18.259Z,24.23
2022-11-29T06:14:50.371Z,23.37
2022-11-29T06:17:19.853Z,24.67
2022-11-29T06:20:04.212Z,27.60
2022-11-29T06:22:53.505Z,28.10
2022-11-29T06:25:37.193Z,24.60
2022-11-29T06:28:28.326Z,25.53
2022-11-29T06:31:18.282Z,23.40
2022-11-29T06:34:03.493Z,28.07
2022-11-29T06:36:44.661Z,20.87
2022-11-29T06:39:11.771Z,23.80
2022-11-29T06:41:38.617Z,21.77
2022-11-29T06:44:06.317Z,24.17
2022-11-29T06:46:46.273Z,23.70
2022-11-29T06:49:32.091Z,21.40
2022-11-29T06:52:22.495Z,23.33
2022-11-29T06:55:12.401Z,21.43
2022-11-29T06:57:54.069Z,21.87
2022-11-29T07:00:27.014Z,20.87
2022-11-29T07:03:19.946Z,22.40
2022-11-29T07:05:46.971Z,22.40
2022-11-29T07:08:19.498Z,22.53
2022-11-29T07:10:49.893Z,23.57
2022-11-29T07:13:18.076Z,22.20
2022-11-29T07:16:15.948Z,22.97
2022-11-29T07:18:54.429Z,23.00
2022-11-29T07:21:41.627Z,23.77
2022-11-29T07:24:22.914Z,22.80
2022-11-29T07:26:56.587Z,22.17
2022-11-29T07:29:44.774Z,25.03
2022-11-29T07:32:20.381Z,23.80
2022-11-29T07:35:00.474Z,22.53
2022-11-29T07:37:42.330Z,21.13
2022-11-29T07:40:37.160Z,24.00
2022-11-29T07:43:22.821Z,23.30
2022-11-29T07:45:51.038Z,26.03
2022-11-29T07:48:18.004Z,22.60
2022-11-29T07:50:45.360Z,20.50
2022-11-29T07:53:17.628Z,22.50
2022-11-29T07:55:45.152Z,21.07
2022-11-29T07:58:13.219Z,23.27
2022-11-29T08:00:42.092Z,24.20
2022-11-29T08:03:09.885Z,25.27
2022-11-29T08:05:38.020Z,23.07
2022-11-29T08:08:05.161Z,23.10
2022-11-29T08:10:31.813Z,24.00
2022-11-29T08:12:58.562Z,23.00
2022-11-29T08:15:25.832Z,22.43
2022-11-29T08:17:53.230Z,24.60
2022-11-29T08:20:19.935Z,23.03
2022-11-29T08:22:54.423Z,23.47
2022-11-29T08:25:21.027Z,22.17
2022-11-29T08:27:47.639Z,21.20
2022-11-29T08:30:14.399Z,23.93
2022-11-29T08:32:41.021Z,20.93
2022-11-29T08:35:07.888Z,21.83
2022-11-29T08:37:34.587Z,24.00
2022-11-29T08:40:01.296Z,22.90
2022-11-29T08:42:27.918Z,21.70
2022-11-29T08:44:54.566Z,22.33
2022-11-29T08:47:36.257Z,25.13
2022-11-29T08:50:17.459Z,23.80
2022-11-29T08:53:04.882Z,23.23
2022-11-29T08:55:37.567Z,23.57
2022-11-29T08:58:09.939Z,22.60
2022-11-29T09:00:37.829Z,23.17
2022-11-29T09:03:24.438Z,23.03
2022-11-29T09:05:51.748Z,23.40
2022-11-29T09:08:19.198Z,24.40
2022-11-29T09:10:46.249Z,22.23
2022-11-29T09:13:13.002Z,23.53
2022-11-29T09:15:43.403Z,21.97
2022-11-29T09:18:10.321Z,20.07
2022-11-29T09:20:37.140Z,21.87
2022-11-29T09:23:04.150Z,22.93
2022-11-29T09:25:30.755Z,23.40
2022-11-29T09:28:03.031Z,21.70
2022-11-29T09:30:34.928Z,22.90
2022-11-29T09:33:05.144Z,18.53
2022-11-29T09:35:32.531Z,19.47
2022-11-29T09:37:59.199Z,21.10
2022-11-29T09:40:33.773Z,21.13
2022-11-29T09:43:26.243Z,18.63
2022-11-29T09:46:37.198Z,22.77
2022-11-29T09:49:08.747Z,21.50
2022-11-29T09:51:44.572Z,24.33
2022-11-29T09:54:27.382Z,22.77
2022-11-29T09:56:55.668Z,21.37
2022-11-29T09:59:40.945Z,20.23
2022-11-29T10:02:26.561Z,20.63
2022-11-29T10:05:06.841Z,19.73
2022-11-29T10:07:47.387Z,25.10
2022-11-29T10:10:46.900Z,21.83
2022-11-29T10:13:25.084Z,21.50
2022-11-29T10:16:14.085Z,23.03
2022-11-29T10:18:55.716Z,22.20
2022-11-29T10:21:28.283Z,19.60
2022-11-29T10:24:01.207Z,18.70
2022-11-29T10:26:33.576Z,19.40
2022-11-29T10:29:01.755Z,19.10
2022-11-29T10:31:42.838Z,18.90
2022-11-29T10:34:15.140Z,20.60
2022-11-29T10:36:54.437Z,20.40
2022-11-29T10:39:39.509Z,19.67
2022-11-29T10:42:31.117Z,20.27
2022-11-29T10:44:59.364Z,20.00
2022-11-29T10:47:26.123Z,17.70
2022-11-29T10:49:52.810Z,18.60
2022-11-29T10:52:23.385Z,17.93
2022-11-29T10:54:54.023Z,17.83
2022-11-29T10:57:22.375Z,17.50
2022-11-29T11:00:06.824Z,19.73
2022-11-29T11:02:34.434Z,17.67
2022-11-29T11:05:01.901Z,18.73
2022-11-29T11:07:35.594Z,18.63
2022-11-29T11:10:21.411Z,17.20
2022-11-29T11:13:02.982Z,19.20
2022-11-29T11:15:32.093Z,16.60
2022-11-29T11:18:05.504Z,15.63
2022-11-29T11:20:35.126Z,19.30
2022-11-29T11:23:07.831Z,16.60
2022-11-29T11:25:39.794Z,18.20
2022-11-29T11:28:15.494Z,16.33
2022-11-29T11:30:50.674Z,17.97
2022-11-29T11:33:24.130Z,17.97
2022-11-29T11:36:11.911Z,17.07
2022-11-29T11:38:50.707Z,18.53
2022-11-29T11:41:17.388Z,17.60
2022-11-29T11:43:59.616Z,17.13
2022-11-29T11:46:48.009Z,16.07
2022-11-29T11:49:45.867Z,18.23
2022-11-29T11:52:29.645Z,18.30
2022-11-29T11:55:03.089Z,18.07
2022-11-29T11:57:30.740Z,17.27
2022-11-29T12:00:03.559Z,17.47
2022-11-29T12:02:37.776Z,16.27
2022-11-29T12:05:19.180Z,16.07
2022-11-29T12:08:10.593Z,17.57
2022-11-29T12:10:40.303Z,17.70
2022-11-29T12:13:18.095Z,17.17
2022-11-29T12:15:49.631Z,18.40
2022-11-29T12:18:42.106Z,17.43
2022-11-29T12:21:17.666Z,16.13
2022-11-29T12:23:52.547Z,13.57
2022-11-29T12:26:55.893Z,13.47
2022-11-29T12:29:17.879Z,17.50
2022-11-29T12:31:44.473Z,16.17
2022-11-29T12:34:31.459Z,17.43
2022-11-29T12:37:04.158Z,14.97
2022-11-29T12:40:09.139Z,15.50
2022-11-29T12:43:15.225Z,16.97
2022-11-29T12:46:03.567Z,15.53
2022-11-29T12:48:49.614Z,14.97
2022-11-29T12:51:31.800Z,13.27
2022-11-29T12:54:20.005Z,12.50
2022-11-29T12:57:07.951Z,13.83
2022-11-29T12:59:49.922Z,13.73
2022-11-29T13:02:41.219Z,11.97
2022-11-29T13:05:39.159Z,15.97
2022-11-29T13:08:20.699Z,13.57
2022-11-29T13:11:16.004Z,14.77
2022-11-29T13:14:41.106Z,13.13
2022-11-29T13:17:01.572Z,11.67
2022-11-29T13:19:43.441Z,11.57
2022-11-29T13:22:28.870Z,13.57
2022-11-29T13:25:03.633Z,15.67
2022-11-29T13:27:39.917Z,16.13
2022-11-29T13:30:07.535Z,12.80
2022-11-29T13:32:35.780Z,13.17
2022-11-29T13:35:15.308Z,12.27
2022-11-29T13:37:55.196Z,14.67
2022-11-29T13:40:30.145Z,13.27
2022-11-29T13:43:18.080Z,11.43
2022-11-29T13:46:09.304Z,13.70
2022-11-29T13:48:48.241Z,12.63
2022-11-29T13:51:25.667Z,13.33
2022-11-29T13:53:54.293Z,16.37
2022-11-29T13:56:43.192Z,16.30
2022-11-29T13:59:18.959Z,13.70
2022-11-29T14:01:48.372Z,15.43
2022-11-29T14:04:28.163Z,12.57
2022-11-29T14:07:05.461Z,13.57
2022-11-29T14:09:45.727Z,16.07
2022-11-29T14:12:37.006Z,12.47
2022-11-29T14:15:16.332Z,14.83
2022-11-29T14:17:47.828Z,15.07
2022-11-29T14:20:23.512Z,15.73
2022-11-29T14:23:05.202Z,15.97
2022-11-29T14:25:51.239Z,14.37
2022-11-29T14:28:18.466Z,16.63
2022-11-29T14:30:54.865Z,18.00
2022-11-29T14:33:29.029Z,11.70
2022-11-29T14:36:19.612Z,17.40
2022-11-29T14:39:12.434Z,17.07
2022-11-29T14:41:50.945Z,16.67
2022-11-29T14:44:25.968Z,15.87
2022-11-29T14:47:13.684Z,18.10
2022-11-29T14:49:43.276Z,15.40
2022-11-29T14:52:15.620Z,16.70
2022-11-29T14:55:00.476Z,14.73
2022-11-29T14:57:53.531Z,21.07
2022-11-29T15:00:30.423Z,19.70
2022-11-29T15:03:15.515Z,17.77
2022-11-29T15:05:49.998Z,19.43
2022-11-29T15:08:32.516Z,24.07
2022-11-29T15:11:11.003Z,18.57
2022-11-29T15:13:44.282Z,15.70
2022-11-29T15:16:31.396Z,17.73
2022-11-29T15:19:41.916Z,17.37
2022-11-29T15:22:22.531Z,21.33
2022-11-29T15:24:57.807Z,21.83
2022-11-29T15:27:24.620Z,21.47
2022-11-29T15:29:52.302Z,23.10
2022-11-29T15:32:25.602Z,21.47
2022-11-29T15:34:54.903Z,19.07
2022-11-29T15:37:40.037Z,17.70
2022-11-29T15:40:18.586Z,16.43
2022-11-29T15:43:15.232Z,22.23
2022-11-29T15:45:48.084Z,18.00
2022-11-29T15:48:26.723Z,18.60
2022-11-29T15:51:14.423Z,20.33
2022-11-29T15:54:00.405Z,20.30
2022-11-29T15:56:49.567Z,18.13
2022-11-29T15:59:34.511Z,18.10
2022-11-29T16:02:13.248Z,21.57
2022-11-29T16:04:46.499Z,18.23
2022-11-29T16:07:14.751Z,21.57
2022-11-29T16:09:45.236Z,20.37
2022-11-29T16:12:15.771Z,17.70
2022-11-29T16:14:57.032Z,17.50
2022-11-29T16:17:35.128Z,14.33
2022-11-29T16:20:13.888Z,19.00
2022-11-29T16:22:40.519Z,17.47
2022-11-29T16:25:15.994Z,17.40
2022-11-29T16:27:43.386Z,21.63
2022-11-29T16:30:22.051Z,20.30
2022-11-29T16:33:16.427Z,18.23
2022-11-29T16:35:43.080Z,18.70
2022-11-29T16:38:21.578Z,16.50
2022-11-29T16:41:20.183Z,19.60
2022-11-29T16:43:55.938Z,15.63
2022-11-29T16:46:22.564Z,15.67
2022-11-29T16:48:50.185Z,18.97
2022-11-29T16:51:32.164Z,18.50
2022-11-29T16:54:21.171Z,16.97
2022-11-29T16:56:48.802Z,16.93
2022-11-29T16:59:20.971Z,17.23
2022-11-29T17:01:55.175Z,15.07
2022-11-29T17:04:23.492Z,14.40
2022-11-29T17:06:55.399Z,14.10
2022-11-29T17:09:30.754Z,15.30
2022-11-29T17:12:00.909Z,15.97
2022-11-29T17:14:28.630Z,12.63
2022-11-29T17:16:55.649Z,14.87
2022-11-29T17:19:23.557Z,12.60
2022-11-29T17:21:51.305Z,18.13
2022-11-29T17:24:20.270Z,12.67
2022-11-29T17:26:46.974Z,13.10
2022-11-29T17:29:15.220Z,13.13
2022-11-29T17:31:44.492Z,15.97
2022-11-29T17:34:11.537Z,16.13
2022-11-29T17:36:38.490Z,15.60
2022-11-29T17:39:05.694Z,14.17
2022-11-29T17:41:32.999Z,13.13
2022-11-29T17:44:00.410Z,16.87
2022-11-29T17:46:30.037Z,15.50
2022-11-29T17:48:59.663Z,12.87
2022-11-29T17:51:51.286Z,11.33
2022-11-29T17:54:13.264Z,10.77
2022-11-29T17:56:39.884Z,12.37
2022-11-29T17:59:06.579Z,13.23
2022-11-29T18:01:34.689Z,12.90
2022-11-29T18:04:03.101Z,12.20
2022-11-29T18:06:34.313Z,11.40
2022-11-29T18:09:02.321Z,15.40
2022-11-29T18:11:44.969Z,13.97
2022-11-29T18:14:16.366Z,14.57
2022-11-29T18:16:45.120Z,14.60
2022-11-29T18:19:14.316Z,13.83
2022-11-29T18:21:41.028Z,12.90
2022-11-29T18:24:08.427Z,12.40
2022-11-29T18:26:36.239Z,12.90
2022-11-29T18:29:03.611Z,12.93
2022-11-29T18:31:32.179Z,16.97
2022-11-29T18:34:00.917Z,11.20
2022-11-29T18:36:33.449Z,15.60
2022-11-29T18:39:03.492Z,15.60
2022-11-29T18:41:31.523Z,18.97
2022-11-29T18:44:18.261Z,15.70
2022-11-29T18:46:45.594Z,13.03
2022-11-29T18:49:15.413Z,14.30
2022-11-29T18:51:44.356Z,15.03
2022-11-29T18:54:11.822Z,14.33
2022-11-29T18:56:41.490Z,13.60
2022-11-29T18:59:17.042Z,14.43
2022-11-29T19:01:45.838Z,18.10
2022-11-29T19:04:21.665Z,14.33
2022-11-29T19:06:48.852Z,13.47
2022-11-29T19:09:20.803Z,16.57
2022-11-29T19:11:49.325Z,14.00
2022-11-29T19:14:16.013Z,15.77
2022-11-29T19:16:44.889Z,15.40
2022-11-29T19:19:12.031Z,14.60
2022-11-29T19:21:39.819Z,16.53
2022-11-29T19:24:13.496Z,18.50
2022-11-29T19:26:41.201Z,16.67
2022-11-29T19:29:07.819Z,15.57
2022-11-29T19:31:34.413Z,14.97
2022-11-29T19:34:01.083Z,14.13
2022-11-29T19:36:30.196Z,14.70
2022-11-29T19:38:57.849Z,14.33
2022-11-29T19:41:27.940Z,15.53
2022-11-29T19:43:57.355Z,13.57
2022-11-29T19:46:26.809Z,14.80
2022-11-29T19:48:55.265Z,15.67
2022-11-29T19:51:23.617Z,17.87
2022-11-29T19:53:55.765Z,17.53
2022-11-29T19:56:23.380Z,16.40
2022-11-29T19:58:50.772Z,17.87
2022-11-29T20:01:27.976Z,16.33
2022-11-29T20:03:58.593Z,16.97
2022-11-29T20:06:30.005Z,18.63
2022-11-29T20:08:57.271Z,20.37
2022-11-29T20:11:25.173Z,17.10
2022-11-29T20:13:55.037Z,16.83
2022-11-29T20:16:22.196Z,17.93
2022-11-29T20:18:51.321Z,17.93
2022-11-29T20:21:23.641Z,17.87
2022-11-29T20:23:56.151Z,18.43
2022-11-29T20:26:23.682Z,20.73
2022-11-29T20:28:50.456Z,21.73
2022-11-29T20:31:21.232Z,19.57
2022-11-29T20:33:48.736Z,20.70
2022-11-29T20:36:43.453Z,19.37
2022-11-29T20:39:21.849Z,18.57
2022-11-29T20:42:16.357Z,18.50
2022-11-29T20:44:54.200Z,18.37
2022-11-29T20:47:23.331Z,18.30
2022-11-29T20:49:50.611Z,18.97
2022-11-29T20:52:41.417Z,17.77
2022-11-29T20:55:08.479Z,17.93
2022-11-29T20:57:38.111Z,14.40
2022-11-29T21:00:11.163Z,18.63
2022-11-29T21:02:38.008Z,17.80
2022-11-29T21:05:05.738Z,20.93
2022-11-29T21:07:32.387Z,20.47
2022-11-29T21:10:01.324Z,18.33
2022-11-29T21:12:29.766Z,16.87
2022-11-29T21:14:57.011Z,17.30
2022-11-29T21:17:27.561Z,15.17
2022-11-29T21:19:58.715Z,18.17
2022-11-29T21:22:42.569Z,19.57
2022-11-29T21:25:26.568Z,16.60
2022-11-29T21:27:55.212Z,18.57
2022-11-29T21:30:24.713Z,16.93
2022-11-29T21:32:52.461Z,16.63
2022-11-29T21:35:19.499Z,18.80
2022-11-29T21:37:46.359Z,17.77
2022-11-29T21:40:14.517Z,19.27
2022-11-29T21:42:41.206Z,17.90
2022-11-29T21:45:14.814Z,18.40
2022-11-29T21:47:43.850Z,17.40
2022-11-29T21:50:11.694Z,17.80
2022-11-29T21:52:38.291Z,18.03
2022-11-29T21:55:05.447Z,18.40
2022-11-29T21:57:32.093Z,17.30
2022-11-29T21:59:58.681Z,16.17
2022-11-29T22:02:25.312Z,16.13
2022-11-29T22:04:52.012Z,15.70
2022-11-29T22:07:18.689Z,18.50
2022-11-29T22:09:45.324Z,15.80
2022-11-29T22:12:32.413Z,15.90
2022-11-29T22:14:58.650Z,18.43
2022-11-29T22:17:25.280Z,18.37
2022-11-29T22:19:51.933Z,17.17
2022-11-29T22:22:18.535Z,17.90
2022-11-29T22:24:45.441Z,15.13
2022-11-29T22:27:12.289Z,17.07
2022-11-29T22:29:38.898Z,17.83
2022-11-29T22:32:06.148Z,16.47
2022-11-29T22:34:32.707Z,18.30
2022-11-29T22:36:59.289Z,23.03
2022-11-29T22:39:26.237Z,17.70
2022-11-29T22:41:55.071Z,18.17
2022-11-29T22:44:23.455Z,17.90
2022-11-29T22:46:50.316Z,17.20
2022-11-29T22:49:16.945Z,19.23
2022-11-29T22:51:43.759Z,15.70
2022-11-29T22:54:16.246Z,18.13
2022-11-29T22:56:44.454Z,17.00
2022-11-29T22:59:11.151Z,18.07
2022-11-29T23:01:39.842Z,17.60
2022-11-29T23:04:08.042Z,15.80
2022-11-29T23:06:43.642Z,16.50
2022-11-29T23:09:19.726Z,16.03
2022-11-29T23:11:50.849Z,14.33
2022-11-29T23:14:18.109Z,15.47
2022-11-29T23:16:44.771Z,15.33
2022-11-29T23:19:11.646Z,16.00
2022-11-29T23:21:40.153Z,16.17
2022-11-29T23:24:07.609Z,15.33
2022-11-29T23:26:39.314Z,16.33
2022-11-29T23:29:13.175Z,14.03
2022-11-29T23:31:40.575Z,15.10
2022-11-29T23:34:07.827Z,15.63
2022-11-29T23:36:34.550Z,15.53
2022-11-29T23:39:01.160Z,19.13
2022-11-29T23:41:27.875Z,18.37
2022-11-29T23:43:54.635Z,18.43
2022-11-29T23:46:23.613Z,15.13
2022-11-29T23:48:50.629Z,16.07
2022-11-29T23:51:18.103Z,14.97
2022-11-29T23:53:44.971Z,15.23
2022-11-29T23:56:16.897Z,15.60
2022-11-29T23:58:44.370Z,15.60
